sensor_id;sensor_type;location;lat;lon;timestamp;P1;durP1;ratioP1;P2;durP2;ratioP2
6973;SDS011;3527;52.376;8.990;2023-07-13T00:01:53;5.63;;;3.47;;
6973;SDS011;3527;52.376;8.990;2023-07-13T00:04:21;5.23;;;3.43;;
6973;SDS011;3527;52.376;8.990;2023-07-13T00:06:52;4.27;;;3.40;;
6973;SDS011;3527;52.376;8.990;2023-07-13T00:09:20;4.43;;;3.20;;
6973;SDS011;3527;52.376;8.990;2023-07-13T00:11:53;5.03;;;3.77;;
6973;SDS011;3527;52.376;8.990;2023-07-13T00:14:21;5.10;;;3.30;;
6973;SDS011;3527;52.376;8.990;2023-07-13T00:16:48;6.53;;;3.60;;
6973;SDS011;3527;52.376;8.990;2023-07-13T00:19:15;5.47;;;3.50;;
6973;SDS011;3527;52.376;8.990;2023-07-13T00:21:42;7.30;;;3.23;;
6973;SDS011;3527;52.376;8.990;2023-07-13T00:24:13;5.40;;;3.63;;
6973;SDS011;3527;52.376;8.990;2023-07-13T00:26:43;5.80;;;3.90;;
6973;SDS011;3527;52.376;8.990;2023-07-13T00:29:12;5.73;;;3.47;;
6973;SDS011;3527;52.376;8.990;2023-07-13T00:31:40;4.17;;;3.30;;
6973;SDS011;3527;52.376;8.990;2023-07-13T00:34:07;4.40;;;3.60;;
6973;SDS011;3527;52.376;8.990;2023-07-13T00:36:34;6.53;;;3.30;;
6973;SDS011;3527;52.376;8.990;2023-07-13T00:39:01;5.43;;;3.80;;
6973;SDS011;3527;52.376;8.990;2023-07-13T00:41:30;6.60;;;3.93;;
6973;SDS011;3527;52.376;8.990;2023-07-13T00:43:57;5.77;;;3.70;;
6973;SDS011;3527;52.376;8.990;2023-07-13T00:46:25;5.67;;;3.60;;
6973;SDS011;3527;52.376;8.990;2023-07-13T00:48:55;5.90;;;3.70;;
6973;SDS011;3527;52.376;8.990;2023-07-13T00:51:27;5.80;;;3.77;;
6973;SDS011;3527;52.376;8.990;2023-07-13T00:53:59;5.03;;;4.30;;
6973;SDS011;3527;52.376;8.990;2023-07-13T00:56:30;5.20;;;4.10;;
6973;SDS011;3527;52.376;8.990;2023-07-13T00:58:59;5.60;;;4.00;;
6973;SDS011;3527;52.376;8.990;2023-07-13T01:01:27;4.93;;;4.47;;
6973;SDS011;3527;52.376;8.990;2023-07-13T01:03:54;5.90;;;4.63;;
6973;SDS011;3527;52.376;8.990;2023-07-13T01:06:20;7.60;;;4.63;;
6973;SDS011;3527;52.376;8.990;2023-07-13T01:08:47;6.07;;;4.00;;
6973;SDS011;3527;52.376;8.990;2023-07-13T01:11:18;7.60;;;4.03;;
6973;SDS011;3527;52.376;8.990;2023-07-13T01:13:48;6.33;;;4.10;;
6973;SDS011;3527;52.376;8.990;2023-07-13T01:16:18;5.43;;;4.50;;
6973;SDS011;3527;52.376;8.990;2023-07-13T01:18:50;7.13;;;3.80;;
6973;SDS011;3527;52.376;8.990;2023-07-13T01:21:17;4.40;;;3.90;;
6973;SDS011;3527;52.376;8.990;2023-07-13T01:23:45;5.47;;;3.70;;
6973;SDS011;3527;52.376;8.990;2023-07-13T01:26:12;5.40;;;3.70;;
6973;SDS011;3527;52.376;8.990;2023-07-13T01:28:39;4.47;;;3.70;;
6973;SDS011;3527;52.376;8.990;2023-07-13T01:31:06;5.33;;;3.90;;
6973;SDS011;3527;52.376;8.990;2023-07-13T01:33:35;8.90;;;4.33;;
6973;SDS011;3527;52.376;8.990;2023-07-13T01:36:07;4.60;;;3.70;;
6973;SDS011;3527;52.376;8.990;2023-07-13T01:38:36;7.17;;;4.27;;
6973;SDS011;3527;52.376;8.990;2023-07-13T01:41:03;6.67;;;3.97;;
6973;SDS011;3527;52.376;8.990;2023-07-13T01:43:30;6.47;;;3.63;;
6973;SDS011;3527;52.376;8.990;2023-07-13T01:45:58;5.57;;;3.70;;
6973;SDS011;3527;52.376;8.990;2023-07-13T01:48:45;4.40;;;3.60;;
6973;SDS011;3527;52.376;8.990;2023-07-13T01:51:12;5.20;;;3.23;;
6973;SDS011;3527;52.376;8.990;2023-07-13T01:53:39;4.87;;;3.20;;
6973;SDS011;3527;52.376;8.990;2023-07-13T01:56:07;4.67;;;3.80;;
6973;SDS011;3527;52.376;8.990;2023-07-13T01:58:34;6.53;;;3.67;;
6973;SDS011;3527;52.376;8.990;2023-07-13T02:01:00;7.63;;;3.27;;
6973;SDS011;3527;52.376;8.990;2023-07-13T02:03:27;5.50;;;3.27;;
6973;SDS011;3527;52.376;8.990;2023-07-13T02:05:54;4.93;;;3.00;;
6973;SDS011;3527;52.376;8.990;2023-07-13T02:08:21;6.20;;;3.23;;
6973;SDS011;3527;52.376;8.990;2023-07-13T02:10:48;5.23;;;3.80;;
6973;SDS011;3527;52.376;8.990;2023-07-13T02:13:14;4.93;;;3.30;;
6973;SDS011;3527;52.376;8.990;2023-07-13T02:15:41;6.70;;;3.43;;
6973;SDS011;3527;52.376;8.990;2023-07-13T02:18:08;6.37;;;3.23;;
6973;SDS011;3527;52.376;8.990;2023-07-13T02:20:35;5.47;;;3.40;;
6973;SDS011;3527;52.376;8.990;2023-07-13T02:23:02;7.10;;;3.67;;
6973;SDS011;3527;52.376;8.990;2023-07-13T02:25:32;8.60;;;3.53;;
6973;SDS011;3527;52.376;8.990;2023-07-13T02:27:59;5.43;;;3.07;;
6973;SDS011;3527;52.376;8.990;2023-07-13T02:30:26;4.33;;;2.90;;
6973;SDS011;3527;52.376;8.990;2023-07-13T02:32:56;5.40;;;2.87;;
6973;SDS011;3527;52.376;8.990;2023-07-13T02:35:23;4.97;;;2.87;;
6973;SDS011;3527;52.376;8.990;2023-07-13T02:37:50;7.37;;;3.33;;
6973;SDS011;3527;52.376;8.990;2023-07-13T02:40:17;5.27;;;2.90;;
6973;SDS011;3527;52.376;8.990;2023-07-13T02:42:44;5.73;;;2.80;;
6973;SDS011;3527;52.376;8.990;2023-07-13T02:45:10;7.27;;;2.97;;
6973;SDS011;3527;52.376;8.990;2023-07-13T02:47:39;4.80;;;2.80;;
6973;SDS011;3527;52.376;8.990;2023-07-13T02:50:08;5.20;;;2.60;;
6973;SDS011;3527;52.376;8.990;2023-07-13T02:52:35;6.47;;;2.90;;
6973;SDS011;3527;52.376;8.990;2023-07-13T02:55:02;5.70;;;3.00;;
6973;SDS011;3527;52.376;8.990;2023-07-13T02:57:29;4.97;;;2.80;;
6973;SDS011;3527;52.376;8.990;2023-07-13T02:59:57;6.13;;;3.03;;
6973;SDS011;3527;52.376;8.990;2023-07-13T03:02:24;7.37;;;3.10;;
6973;SDS011;3527;52.376;8.990;2023-07-13T03:04:51;5.87;;;2.77;;
6973;SDS011;3527;52.376;8.990;2023-07-13T03:07:18;6.57;;;3.10;;
6973;SDS011;3527;52.376;8.990;2023-07-13T03:09:45;7.00;;;3.20;;
6973;SDS011;3527;52.376;8.990;2023-07-13T03:12:12;5.97;;;3.30;;
6973;SDS011;3527;52.376;8.990;2023-07-13T03:14:38;6.27;;;2.93;;
6973;SDS011;3527;52.376;8.990;2023-07-13T03:17:05;4.03;;;3.20;;
6973;SDS011;3527;52.376;8.990;2023-07-13T03:19:32;7.50;;;3.33;;
6973;SDS011;3527;52.376;8.990;2023-07-13T03:21:59;6.60;;;3.60;;
6973;SDS011;3527;52.376;8.990;2023-07-13T03:24:26;4.63;;;3.30;;
6973;SDS011;3527;52.376;8.990;2023-07-13T03:26:52;6.67;;;2.90;;
6973;SDS011;3527;52.376;8.990;2023-07-13T03:29:19;5.17;;;2.90;;
6973;SDS011;3527;52.376;8.990;2023-07-13T03:31:46;4.67;;;2.83;;
6973;SDS011;3527;52.376;8.990;2023-07-13T03:34:13;5.73;;;3.00;;
6973;SDS011;3527;52.376;8.990;2023-07-13T03:36:40;7.27;;;3.43;;
6973;SDS011;3527;52.376;8.990;2023-07-13T03:39:06;5.83;;;2.90;;
6973;SDS011;3527;52.376;8.990;2023-07-13T03:41:35;6.70;;;3.23;;
6973;SDS011;3527;52.376;8.990;2023-07-13T03:44:02;8.83;;;3.33;;
6973;SDS011;3527;52.376;8.990;2023-07-13T03:46:30;4.97;;;3.10;;
6973;SDS011;3527;52.376;8.990;2023-07-13T03:48:57;4.37;;;2.93;;
6973;SDS011;3527;52.376;8.990;2023-07-13T03:51:24;9.53;;;3.80;;
6973;SDS011;3527;52.376;8.990;2023-07-13T03:53:52;6.13;;;3.37;;
6973;SDS011;3527;52.376;8.990;2023-07-13T03:56:19;6.80;;;3.20;;
6973;SDS011;3527;52.376;8.990;2023-07-13T03:58:47;6.50;;;3.60;;
6973;SDS011;3527;52.376;8.990;2023-07-13T04:01:16;6.17;;;3.60;;
6973;SDS011;3527;52.376;8.990;2023-07-13T04:03:44;6.90;;;3.33;;
6973;SDS011;3527;52.376;8.990;2023-07-13T04:06:14;8.30;;;3.83;;
6973;SDS011;3527;52.376;8.990;2023-07-13T04:08:51;7.13;;;3.40;;
6973;SDS011;3527;52.376;8.990;2023-07-13T04:11:20;8.60;;;3.73;;
6973;SDS011;3527;52.376;8.990;2023-07-13T04:13:49;6.33;;;3.20;;
6973;SDS011;3527;52.376;8.990;2023-07-13T04:16:36;6.17;;;2.90;;
6973;SDS011;3527;52.376;8.990;2023-07-13T04:19:23;5.20;;;3.30;;
6973;SDS011;3527;52.376;8.990;2023-07-13T04:22:10;9.27;;;3.43;;
6973;SDS011;3527;52.376;8.990;2023-07-13T04:24:57;6.03;;;3.30;;
6973;SDS011;3527;52.376;8.990;2023-07-13T04:27:43;7.67;;;3.57;;
6973;SDS011;3527;52.376;8.990;2023-07-13T04:30:31;7.93;;;3.43;;
6973;SDS011;3527;52.376;8.990;2023-07-13T04:33:04;7.43;;;3.30;;
6973;SDS011;3527;52.376;8.990;2023-07-13T04:35:49;10.63;;;3.63;;
6973;SDS011;3527;52.376;8.990;2023-07-13T04:38:23;7.37;;;3.23;;
6973;SDS011;3527;52.376;8.990;2023-07-13T04:40:51;6.37;;;2.87;;
6973;SDS011;3527;52.376;8.990;2023-07-13T04:43:18;6.97;;;3.00;;
6973;SDS011;3527;52.376;8.990;2023-07-13T04:45:45;9.23;;;3.30;;
6973;SDS011;3527;52.376;8.990;2023-07-13T04:48:12;7.30;;;2.93;;
6973;SDS011;3527;52.376;8.990;2023-07-13T04:50:39;8.03;;;3.47;;
6973;SDS011;3527;52.376;8.990;2023-07-13T04:53:06;11.73;;;3.50;;
6973;SDS011;3527;52.376;8.990;2023-07-13T04:55:33;7.77;;;3.17;;
6973;SDS011;3527;52.376;8.990;2023-07-13T04:58:00;7.57;;;3.70;;
6973;SDS011;3527;52.376;8.990;2023-07-13T05:00:27;8.27;;;3.20;;
6973;SDS011;3527;52.376;8.990;2023-07-13T05:02:57;8.50;;;3.70;;
6973;SDS011;3527;52.376;8.990;2023-07-13T05:05:25;5.17;;;3.00;;
6973;SDS011;3527;52.376;8.990;2023-07-13T05:07:52;5.57;;;3.27;;
6973;SDS011;3527;52.376;8.990;2023-07-13T05:10:20;11.07;;;3.80;;
6973;SDS011;3527;52.376;8.990;2023-07-13T05:12:48;7.83;;;3.23;;
6973;SDS011;3527;52.376;8.990;2023-07-13T05:15:14;6.07;;;3.13;;
6973;SDS011;3527;52.376;8.990;2023-07-13T05:17:41;5.60;;;3.13;;
6973;SDS011;3527;52.376;8.990;2023-07-13T05:20:08;7.10;;;3.13;;
6973;SDS011;3527;52.376;8.990;2023-07-13T05:22:36;7.63;;;3.23;;
6973;SDS011;3527;52.376;8.990;2023-07-13T05:25:06;10.87;;;3.70;;
6973;SDS011;3527;52.376;8.990;2023-07-13T05:27:34;6.97;;;3.57;;
6973;SDS011;3527;52.376;8.990;2023-07-13T05:30:02;6.57;;;3.33;;
6973;SDS011;3527;52.376;8.990;2023-07-13T05:32:30;6.97;;;3.30;;
6973;SDS011;3527;52.376;8.990;2023-07-13T05:34:57;11.13;;;3.73;;
6973;SDS011;3527;52.376;8.990;2023-07-13T05:37:24;7.67;;;3.50;;
6973;SDS011;3527;52.376;8.990;2023-07-13T05:39:50;8.33;;;3.27;;
6973;SDS011;3527;52.376;8.990;2023-07-13T05:42:17;7.90;;;2.90;;
6973;SDS011;3527;52.376;8.990;2023-07-13T05:44:44;6.17;;;2.90;;
6973;SDS011;3527;52.376;8.990;2023-07-13T05:47:11;9.33;;;3.47;;
6973;SDS011;3527;52.376;8.990;2023-07-13T05:49:40;7.97;;;3.47;;
6973;SDS011;3527;52.376;8.990;2023-07-13T05:52:07;7.07;;;2.80;;
6973;SDS011;3527;52.376;8.990;2023-07-13T05:54:35;6.37;;;2.90;;
6973;SDS011;3527;52.376;8.990;2023-07-13T05:57:02;6.73;;;2.83;;
6973;SDS011;3527;52.376;8.990;2023-07-13T05:59:28;8.93;;;2.80;;
6973;SDS011;3527;52.376;8.990;2023-07-13T06:01:55;6.77;;;2.67;;
6973;SDS011;3527;52.376;8.990;2023-07-13T06:04:26;5.13;;;2.70;;
6973;SDS011;3527;52.376;8.990;2023-07-13T06:06:54;5.50;;;2.43;;
6973;SDS011;3527;52.376;8.990;2023-07-13T06:09:21;4.93;;;2.50;;
6973;SDS011;3527;52.376;8.990;2023-07-13T06:11:48;7.87;;;2.90;;
6973;SDS011;3527;52.376;8.990;2023-07-13T06:14:16;6.00;;;2.30;;
6973;SDS011;3527;52.376;8.990;2023-07-13T06:16:43;6.57;;;2.60;;
6973;SDS011;3527;52.376;8.990;2023-07-13T06:19:10;5.70;;;2.40;;
6973;SDS011;3527;52.376;8.990;2023-07-13T06:21:36;5.40;;;2.40;;
6973;SDS011;3527;52.376;8.990;2023-07-13T06:24:03;6.77;;;2.83;;
6973;SDS011;3527;52.376;8.990;2023-07-13T06:26:30;5.20;;;2.50;;
6973;SDS011;3527;52.376;8.990;2023-07-13T06:28:58;5.87;;;2.97;;
6973;SDS011;3527;52.376;8.990;2023-07-13T06:31:25;6.10;;;2.90;;
6973;SDS011;3527;52.376;8.990;2023-07-13T06:33:52;8.13;;;2.73;;
6973;SDS011;3527;52.376;8.990;2023-07-13T06:36:19;6.67;;;2.50;;
6973;SDS011;3527;52.376;8.990;2023-07-13T06:38:45;8.33;;;2.97;;
6973;SDS011;3527;52.376;8.990;2023-07-13T06:41:12;5.23;;;2.77;;
6973;SDS011;3527;52.376;8.990;2023-07-13T06:43:40;6.47;;;3.07;;
6973;SDS011;3527;52.376;8.990;2023-07-13T06:46:07;8.63;;;2.33;;
6973;SDS011;3527;52.376;8.990;2023-07-13T06:48:34;6.87;;;2.07;;
6973;SDS011;3527;52.376;8.990;2023-07-13T06:51:01;4.83;;;2.27;;
6973;SDS011;3527;52.376;8.990;2023-07-13T06:53:29;10.60;;;2.97;;
6973;SDS011;3527;52.376;8.990;2023-07-13T06:55:56;6.43;;;2.63;;
6973;SDS011;3527;52.376;8.990;2023-07-13T06:58:22;9.33;;;2.87;;
6973;SDS011;3527;52.376;8.990;2023-07-13T07:00:52;6.70;;;2.53;;
6973;SDS011;3527;52.376;8.990;2023-07-13T07:03:19;7.00;;;2.53;;
6973;SDS011;3527;52.376;8.990;2023-07-13T07:05:46;5.60;;;2.60;;
6973;SDS011;3527;52.376;8.990;2023-07-13T07:08:13;5.50;;;2.37;;
6973;SDS011;3527;52.376;8.990;2023-07-13T07:10:41;8.90;;;2.70;;
6973;SDS011;3527;52.376;8.990;2023-07-13T07:13:08;6.50;;;2.23;;
6973;SDS011;3527;52.376;8.990;2023-07-13T07:15:35;6.70;;;2.60;;
6973;SDS011;3527;52.376;8.990;2023-07-13T07:18:03;8.77;;;2.50;;
6973;SDS011;3527;52.376;8.990;2023-07-13T07:20:30;7.83;;;2.43;;
6973;SDS011;3527;52.376;8.990;2023-07-13T07:22:57;6.47;;;2.23;;
6973;SDS011;3527;52.376;8.990;2023-07-13T07:25:24;9.60;;;2.50;;
6973;SDS011;3527;52.376;8.990;2023-07-13T07:27:51;8.77;;;2.90;;
6973;SDS011;3527;52.376;8.990;2023-07-13T07:30:20;7.20;;;2.53;;
6973;SDS011;3527;52.376;8.990;2023-07-13T07:32:50;8.73;;;2.87;;
6973;SDS011;3527;52.376;8.990;2023-07-13T07:35:20;7.57;;;2.77;;
6973;SDS011;3527;52.376;8.990;2023-07-13T07:37:47;6.60;;;2.73;;
6973;SDS011;3527;52.376;8.990;2023-07-13T07:40:16;7.83;;;2.67;;
6973;SDS011;3527;52.376;8.990;2023-07-13T07:42:46;7.67;;;2.70;;
6973;SDS011;3527;52.376;8.990;2023-07-13T07:45:13;8.77;;;3.20;;
6973;SDS011;3527;52.376;8.990;2023-07-13T07:47:41;7.80;;;2.70;;
6973;SDS011;3527;52.376;8.990;2023-07-13T07:50:08;6.80;;;3.07;;
6973;SDS011;3527;52.376;8.990;2023-07-13T07:52:35;7.73;;;2.30;;
6973;SDS011;3527;52.376;8.990;2023-07-13T07:55:03;9.93;;;3.30;;
6973;SDS011;3527;52.376;8.990;2023-07-13T07:57:35;6.03;;;3.00;;
6973;SDS011;3527;52.376;8.990;2023-07-13T08:00:05;10.43;;;3.33;;
6973;SDS011;3527;52.376;8.990;2023-07-13T08:02:35;6.93;;;2.83;;
6973;SDS011;3527;52.376;8.990;2023-07-13T08:05:05;6.27;;;2.50;;
6973;SDS011;3527;52.376;8.990;2023-07-13T08:07:35;8.30;;;2.60;;
6973;SDS011;3527;52.376;8.990;2023-07-13T08:10:03;7.87;;;2.40;;
6973;SDS011;3527;52.376;8.990;2023-07-13T08:12:33;9.10;;;2.67;;
6973;SDS011;3527;52.376;8.990;2023-07-13T08:15:04;6.10;;;2.40;;
6973;SDS011;3527;52.376;8.990;2023-07-13T08:17:35;7.63;;;2.23;;
6973;SDS011;3527;52.376;8.990;2023-07-13T08:20:03;7.17;;;2.47;;
6973;SDS011;3527;52.376;8.990;2023-07-13T08:22:31;5.87;;;2.43;;
6973;SDS011;3527;52.376;8.990;2023-07-13T08:24:59;6.77;;;2.40;;
6973;SDS011;3527;52.376;8.990;2023-07-13T08:27:27;5.87;;;2.20;;
6973;SDS011;3527;52.376;8.990;2023-07-13T08:29:54;4.20;;;1.93;;
6973;SDS011;3527;52.376;8.990;2023-07-13T08:32:22;8.30;;;2.40;;
6973;SDS011;3527;52.376;8.990;2023-07-13T08:34:50;8.23;;;2.20;;
6973;SDS011;3527;52.376;8.990;2023-07-13T08:37:18;5.07;;;2.13;;
6973;SDS011;3527;52.376;8.990;2023-07-13T08:39:46;6.45;;;2.40;;
6973;SDS011;3527;52.376;8.990;2023-07-13T08:47:35;5.88;;;2.10;;
6973;SDS011;3527;52.376;8.990;2023-07-13T08:50:08;6.53;;;2.53;;
6973;SDS011;3527;52.376;8.990;2023-07-13T08:52:40;7.85;;;2.63;;
6973;SDS011;3527;52.376;8.990;2023-07-13T08:55:14;5.03;;;2.17;;
6973;SDS011;3527;52.376;8.990;2023-07-13T08:57:45;4.85;;;2.22;;
6973;SDS011;3527;52.376;8.990;2023-07-13T09:00:15;5.10;;;1.92;;
6973;SDS011;3527;52.376;8.990;2023-07-13T09:02:44;5.22;;;2.13;;
6973;SDS011;3527;52.376;8.990;2023-07-13T09:05:22;5.07;;;2.33;;
6973;SDS011;3527;52.376;8.990;2023-07-13T09:10:30;4.90;;;2.05;;
6973;SDS011;3527;52.376;8.990;2023-07-13T09:15:48;4.32;;;1.90;;
6973;SDS011;3527;52.376;8.990;2023-07-13T09:23:41;3.55;;;1.60;;
6973;SDS011;3527;52.376;8.990;2023-07-13T09:28:45;4.40;;;1.65;;
6973;SDS011;3527;52.376;8.990;2023-07-13T09:31:19;4.30;;;1.95;;
6973;SDS011;3527;52.376;8.990;2023-07-13T09:33:50;3.55;;;1.95;;
6973;SDS011;3527;52.376;8.990;2023-07-13T09:36:19;4.38;;;2.00;;
6973;SDS011;3527;52.376;8.990;2023-07-13T09:38:54;4.60;;;2.00;;
6973;SDS011;3527;52.376;8.990;2023-07-13T09:44:27;4.80;;;1.92;;
6973;SDS011;3527;52.376;8.990;2023-07-13T09:46:59;3.15;;;1.60;;
6973;SDS011;3527;52.376;8.990;2023-07-13T09:49:27;4.35;;;2.00;;
6973;SDS011;3527;52.376;8.990;2023-07-13T09:52:14;6.93;;;2.00;;
6973;SDS011;3527;52.376;8.990;2023-07-13T09:54:48;4.28;;;2.20;;
6973;SDS011;3527;52.376;8.990;2023-07-13T09:57:18;6.15;;;2.10;;
6973;SDS011;3527;52.376;8.990;2023-07-13T09:59:47;3.78;;;1.92;;
6973;SDS011;3527;52.376;8.990;2023-07-13T10:02:32;5.70;;;2.00;;
6973;SDS011;3527;52.376;8.990;2023-07-13T10:05:11;2.45;;;1.67;;
6973;SDS011;3527;52.376;8.990;2023-07-13T10:07:42;5.22;;;2.17;;
6973;SDS011;3527;52.376;8.990;2023-07-13T10:10:15;5.20;;;2.03;;
6973;SDS011;3527;52.376;8.990;2023-07-13T10:12:48;4.03;;;1.63;;
6973;SDS011;3527;52.376;8.990;2023-07-13T10:15:22;2.97;;;1.80;;
6973;SDS011;3527;52.376;8.990;2023-07-13T10:17:51;2.80;;;1.80;;
6973;SDS011;3527;52.376;8.990;2023-07-13T10:20:22;2.90;;;1.55;;
6973;SDS011;3527;52.376;8.990;2023-07-13T10:25:29;3.17;;;1.35;;
6973;SDS011;3527;52.376;8.990;2023-07-13T10:28:04;3.53;;;1.77;;
6973;SDS011;3527;52.376;8.990;2023-07-13T10:30:39;3.40;;;1.80;;
6973;SDS011;3527;52.376;8.990;2023-07-13T10:33:10;4.05;;;1.65;;
6973;SDS011;3527;52.376;8.990;2023-07-13T10:35:41;3.20;;;1.80;;
6973;SDS011;3527;52.376;8.990;2023-07-13T10:38:11;4.72;;;1.92;;
6973;SDS011;3527;52.376;8.990;2023-07-13T10:40:46;3.85;;;1.60;;
6973;SDS011;3527;52.376;8.990;2023-07-13T10:43:50;3.80;;;1.83;;
6973;SDS011;3527;52.376;8.990;2023-07-13T10:46:22;3.88;;;1.70;;
6973;SDS011;3527;52.376;8.990;2023-07-13T10:48:55;2.72;;;1.52;;
6973;SDS011;3527;52.376;8.990;2023-07-13T10:51:26;2.95;;;1.60;;
6973;SDS011;3527;52.376;8.990;2023-07-13T10:57:34;3.40;;;1.60;;
6973;SDS011;3527;52.376;8.990;2023-07-13T10:59:48;3.42;;;1.65;;
6973;SDS011;3527;52.376;8.990;2023-07-13T11:02:35;3.88;;;1.52;;
6973;SDS011;3527;52.376;8.990;2023-07-13T11:05:13;3.25;;;1.80;;
6973;SDS011;3527;52.376;8.990;2023-07-13T11:07:52;3.33;;;1.73;;
6973;SDS011;3527;52.376;8.990;2023-07-13T11:13:38;4.10;;;2.10;;
6973;SDS011;3527;52.376;8.990;2023-07-13T11:21:30;2.85;;;1.73;;
6973;SDS011;3527;52.376;8.990;2023-07-13T11:24:02;4.85;;;1.95;;
6973;SDS011;3527;52.376;8.990;2023-07-13T11:31:54;4.28;;;1.80;;
6973;SDS011;3527;52.376;8.990;2023-07-13T11:34:27;5.43;;;1.98;;
6973;SDS011;3527;52.376;8.990;2023-07-13T11:36:58;3.53;;;1.83;;
6973;SDS011;3527;52.376;8.990;2023-07-13T11:39:30;4.63;;;2.15;;
6973;SDS011;3527;52.376;8.990;2023-07-13T11:42:04;3.55;;;2.00;;
6973;SDS011;3527;52.376;8.990;2023-07-13T11:44:41;3.65;;;1.98;;
6973;SDS011;3527;52.376;8.990;2023-07-13T11:47:29;3.90;;;2.00;;
6973;SDS011;3527;52.376;8.990;2023-07-13T11:49:57;4.45;;;2.10;;
6973;SDS011;3527;52.376;8.990;2023-07-13T11:52:28;5.03;;;2.15;;
6973;SDS011;3527;52.376;8.990;2023-07-13T11:55:00;4.40;;;2.15;;
6973;SDS011;3527;52.376;8.990;2023-07-13T11:57:32;4.40;;;1.88;;
6973;SDS011;3527;52.376;8.990;2023-07-13T12:00:03;2.70;;;1.83;;
6973;SDS011;3527;52.376;8.990;2023-07-13T12:02:39;3.28;;;2.00;;
6973;SDS011;3527;52.376;8.990;2023-07-13T12:05:10;3.22;;;1.90;;
6973;SDS011;3527;52.376;8.990;2023-07-13T12:07:40;4.43;;;2.10;;
6973;SDS011;3527;52.376;8.990;2023-07-13T12:10:18;5.68;;;2.22;;
6973;SDS011;3527;52.376;8.990;2023-07-13T12:12:54;5.07;;;2.53;;
6973;SDS011;3527;52.376;8.990;2023-07-13T12:18:19;6.47;;;2.78;;
6973;SDS011;3527;52.376;8.990;2023-07-13T12:20:49;5.90;;;2.47;;
6973;SDS011;3527;52.376;8.990;2023-07-13T12:23:34;5.50;;;2.83;;
6973;SDS011;3527;52.376;8.990;2023-07-13T12:26:03;4.18;;;2.33;;
6973;SDS011;3527;52.376;8.990;2023-07-13T12:30:59;4.43;;;2.10;;
6973;SDS011;3527;52.376;8.990;2023-07-13T12:33:28;5.47;;;2.20;;
6973;SDS011;3527;52.376;8.990;2023-07-13T12:35:56;6.47;;;2.60;;
6973;SDS011;3527;52.376;8.990;2023-07-13T12:38:24;6.80;;;2.33;;
6973;SDS011;3527;52.376;8.990;2023-07-13T12:40:52;6.80;;;2.20;;
6973;SDS011;3527;52.376;8.990;2023-07-13T12:43:21;6.67;;;2.47;;
6973;SDS011;3527;52.376;8.990;2023-07-13T12:48:28;3.88;;;1.80;;
6973;SDS011;3527;52.376;8.990;2023-07-13T12:51:12;3.87;;;1.80;;
6973;SDS011;3527;52.376;8.990;2023-07-13T12:53:47;5.17;;;1.80;;
6973;SDS011;3527;52.376;8.990;2023-07-13T12:56:24;4.80;;;2.00;;
6973;SDS011;3527;52.376;8.990;2023-07-13T12:58:57;3.17;;;2.07;;
6973;SDS011;3527;52.376;8.990;2023-07-13T13:01:27;4.33;;;1.73;;
6973;SDS011;3527;52.376;8.990;2023-07-13T13:03:55;2.43;;;1.40;;
6973;SDS011;3527;52.376;8.990;2023-07-13T13:08:53;1.97;;;1.33;;
6973;SDS011;3527;52.376;8.990;2023-07-13T13:11:25;1.90;;;1.40;;
6973;SDS011;3527;52.376;8.990;2023-07-13T13:13:53;2.33;;;1.50;;
6973;SDS011;3527;52.376;8.990;2023-07-13T13:18:59;3.00;;;1.63;;
6973;SDS011;3527;52.376;8.990;2023-07-13T13:21:36;3.87;;;1.83;;
6973;SDS011;3527;52.376;8.990;2023-07-13T13:24:08;3.47;;;1.40;;
6973;SDS011;3527;52.376;8.990;2023-07-13T13:26:40;2.43;;;1.30;;
6973;SDS011;3527;52.376;8.990;2023-07-13T13:29:18;3.20;;;1.30;;
6973;SDS011;3527;52.376;8.990;2023-07-13T13:31:47;2.63;;;1.80;;
6973;SDS011;3527;52.376;8.990;2023-07-13T13:34:15;5.00;;;1.77;;
6973;SDS011;3527;52.376;8.990;2023-07-13T13:36:44;4.60;;;2.47;;
6973;SDS011;3527;52.376;8.990;2023-07-13T13:41:51;3.20;;;2.10;;
6973;SDS011;3527;52.376;8.990;2023-07-13T13:44:19;6.03;;;2.50;;
6973;SDS011;3527;52.376;8.990;2023-07-13T13:46:48;3.67;;;2.10;;
6973;SDS011;3527;52.376;8.990;2023-07-13T13:49:24;5.03;;;2.83;;
6973;SDS011;3527;52.376;8.990;2023-07-13T13:51:52;5.30;;;2.87;;
6973;SDS011;3527;52.376;8.990;2023-07-13T13:54:20;4.43;;;2.27;;
6973;SDS011;3527;52.376;8.990;2023-07-13T13:56:49;4.43;;;2.60;;
6973;SDS011;3527;52.376;8.990;2023-07-13T13:59:17;5.63;;;2.43;;
6973;SDS011;3527;52.376;8.990;2023-07-13T14:01:47;6.43;;;1.93;;
6973;SDS011;3527;52.376;8.990;2023-07-13T14:04:17;4.27;;;2.10;;
6973;SDS011;3527;52.376;8.990;2023-07-13T14:06:46;4.60;;;2.47;;
6973;SDS011;3527;52.376;8.990;2023-07-13T14:09:14;4.13;;;1.80;;
6973;SDS011;3527;52.376;8.990;2023-07-13T14:11:45;4.43;;;2.30;;
6973;SDS011;3527;52.376;8.990;2023-07-13T14:14:20;3.03;;;2.33;;
6973;SDS011;3527;52.376;8.990;2023-07-13T14:16:49;3.00;;;2.30;;
6973;SDS011;3527;52.376;8.990;2023-07-13T14:19:20;4.33;;;2.53;;
6973;SDS011;3527;52.376;8.990;2023-07-13T14:21:48;3.80;;;2.77;;
6973;SDS011;3527;52.376;8.990;2023-07-13T14:24:16;5.23;;;2.80;;
6973;SDS011;3527;52.376;8.990;2023-07-13T14:26:45;3.70;;;2.43;;
6973;SDS011;3527;52.376;8.990;2023-07-13T14:29:14;10.43;;;2.80;;
6973;SDS011;3527;52.376;8.990;2023-07-13T14:31:46;3.73;;;2.60;;
6973;SDS011;3527;52.376;8.990;2023-07-13T14:34:14;3.60;;;2.47;;
6973;SDS011;3527;52.376;8.990;2023-07-13T14:36:45;3.60;;;2.53;;
6973;SDS011;3527;52.376;8.990;2023-07-13T14:39:22;4.20;;;2.60;;
6973;SDS011;3527;52.376;8.990;2023-07-13T14:41:51;3.03;;;2.70;;
6973;SDS011;3527;52.376;8.990;2023-07-13T14:44:21;3.77;;;2.90;;
6973;SDS011;3527;52.376;8.990;2023-07-13T14:46:52;3.07;;;2.50;;
6973;SDS011;3527;52.376;8.990;2023-07-13T14:49:32;4.57;;;2.87;;
6973;SDS011;3527;52.376;8.990;2023-07-13T14:52:03;4.40;;;3.03;;
6973;SDS011;3527;52.376;8.990;2023-07-13T14:54:37;3.90;;;2.60;;
6973;SDS011;3527;52.376;8.990;2023-07-13T14:57:13;2.87;;;2.10;;
6973;SDS011;3527;52.376;8.990;2023-07-13T14:59:42;4.30;;;2.70;;
6973;SDS011;3527;52.376;8.990;2023-07-13T15:02:29;3.70;;;2.40;;
6973;SDS011;3527;52.376;8.990;2023-07-13T15:04:59;2.70;;;2.40;;
6973;SDS011;3527;52.376;8.990;2023-07-13T15:07:27;3.90;;;2.30;;
6973;SDS011;3527;52.376;8.990;2023-07-13T15:09:54;4.23;;;2.60;;
6973;SDS011;3527;52.376;8.990;2023-07-13T15:12:21;2.63;;;2.07;;
6973;SDS011;3527;52.376;8.990;2023-07-13T15:14:47;3.23;;;2.27;;
6973;SDS011;3527;52.376;8.990;2023-07-13T15:17:26;4.57;;;2.63;;
6973;SDS011;3527;52.376;8.990;2023-07-13T15:19:57;3.37;;;2.40;;
6973;SDS011;3527;52.376;8.990;2023-07-13T15:22:25;3.63;;;2.43;;
6973;SDS011;3527;52.376;8.990;2023-07-13T15:24:52;3.90;;;2.73;;
6973;SDS011;3527;52.376;8.990;2023-07-13T15:27:19;4.57;;;2.93;;
6973;SDS011;3527;52.376;8.990;2023-07-13T15:29:46;4.80;;;2.90;;
6973;SDS011;3527;52.376;8.990;2023-07-13T15:32:13;3.23;;;2.93;;
6973;SDS011;3527;52.376;8.990;2023-07-13T15:34:40;5.17;;;3.47;;
6973;SDS011;3527;52.376;8.990;2023-07-13T15:37:16;4.73;;;3.63;;
6973;SDS011;3527;52.376;8.990;2023-07-13T15:39:44;5.50;;;3.63;;
6973;SDS011;3527;52.376;8.990;2023-07-13T15:42:15;4.63;;;3.70;;
6973;SDS011;3527;52.376;8.990;2023-07-13T15:44:42;7.43;;;4.10;;
6973;SDS011;3527;52.376;8.990;2023-07-13T15:47:11;7.03;;;4.23;;
6973;SDS011;3527;52.376;8.990;2023-07-13T15:49:39;5.07;;;4.07;;
6973;SDS011;3527;52.376;8.990;2023-07-13T15:52:16;4.97;;;3.90;;
6973;SDS011;3527;52.376;8.990;2023-07-13T15:54:49;4.80;;;3.40;;
6973;SDS011;3527;52.376;8.990;2023-07-13T15:57:16;5.23;;;3.47;;
6973;SDS011;3527;52.376;8.990;2023-07-13T15:59:44;5.47;;;3.63;;
6973;SDS011;3527;52.376;8.990;2023-07-13T16:02:20;6.77;;;3.90;;
6973;SDS011;3527;52.376;8.990;2023-07-13T16:04:47;5.07;;;3.47;;
6973;SDS011;3527;52.376;8.990;2023-07-13T16:07:15;4.00;;;3.37;;
6973;SDS011;3527;52.376;8.990;2023-07-13T16:09:44;4.50;;;3.23;;
6973;SDS011;3527;52.376;8.990;2023-07-13T16:12:12;3.70;;;3.20;;
6973;SDS011;3527;52.376;8.990;2023-07-13T16:14:40;3.53;;;3.10;;
6973;SDS011;3527;52.376;8.990;2023-07-13T16:17:09;7.10;;;3.50;;
6973;SDS011;3527;52.376;8.990;2023-07-13T16:19:37;4.53;;;4.00;;
6973;SDS011;3527;52.376;8.990;2023-07-13T16:22:04;4.77;;;3.30;;
6973;SDS011;3527;52.376;8.990;2023-07-13T16:24:40;3.93;;;3.20;;
6973;SDS011;3527;52.376;8.990;2023-07-13T16:27:08;3.47;;;3.17;;
6973;SDS011;3527;52.376;8.990;2023-07-13T16:29:35;4.67;;;3.57;;